Time;durP1;ratioP1;P1;durP2;ratioP2;P2;SDS_P1;SDS_P2;PMS_P1;PMS_P2;Temp;Humidity;BMP_temperature;BMP_pressure;BME280_temperature;BME280_humidity;BME280_pressure;Samples;Min_cycle;Max_cycle;Signal;HPM_P1;HPM_P2
2021/12/07 00:02:24;;;;;;;14.30;7.77;;;1.90;99.90;;;;;;5022675;28;20033;-73
2021/12/07 00:04:49;;;;;;;13.07;7.33;;;1.90;99.90;;;;;;5024663;28;20531;-73
2021/12/07 00:07:15;;;;;;;13.27;7.97;;;1.90;99.90;;;;;;5019642;28;20050;-73
2021/12/07 00:09:44;;;;;;;13.60;8.07;;;1.90;99.90;;;;;;5024705;28;20041;-73
2021/12/07 00:12:13;;;;;;;14.63;7.50;;;1.90;99.90;;;;;;5022655;28;20053;-72
2021/12/07 00:14:41;;;;;;;14.45;7.30;;;1.90;99.90;;;;;;5021685;28;20033;-72
2021/12/07 00:17:07;;;;;;;12.68;6.65;;;1.90;99.90;;;;;;5027080;28;20482;-72
2021/12/07 00:19:33;;;;;;;14.43;8.02;;;1.90;99.90;;;;;;5023676;28;20061;-72
2021/12/07 00:22:00;;;;;;;14.43;7.43;;;1.80;99.90;;;;;;5023865;28;20041;-72
2021/12/07 00:24:26;;;;;;;13.23;7.38;;;1.80;99.90;;;;;;5024127;28;20115;-72
2021/12/07 00:26:51;;;;;;;12.37;6.57;;;1.80;99.90;;;;;;5023794;28;20037;-72
2021/12/07 00:29:18;;;;;;;12.83;7.83;;;1.80;99.90;;;;;;5022232;28;20091;-72
2021/12/07 00:31:52;;;;;;;17.45;8.30;;;1.80;99.90;;;;;;5017736;28;20053;-72
2021/12/07 00:36:52;;;;;;;14.32;7.15;;;1.80;99.90;;;;;;5020206;28;20052;-72
2021/12/07 00:39:20;;;;;;;12.68;7.15;;;1.80;99.90;;;;;;5017315;28;20572;-72
2021/12/07 00:41:48;;;;;;;14.00;7.40;;;1.80;99.90;;;;;;5025410;28;20037;-72
2021/12/07 00:44:15;;;;;;;13.63;7.18;;;1.70;99.90;;;;;;5024015;28;20425;-72
2021/12/07 00:46:41;;;;;;;13.55;7.00;;;1.70;99.90;;;;;;5006054;28;20040;-72
2021/12/07 00:49:07;;;;;;;12.00;6.87;;;1.70;99.90;;;;;;5019243;28;20046;-72
2021/12/07 00:51:33;;;;;;;12.02;7.05;;;1.70;99.90;;;;;;5019421;28;20599;-72
2021/12/07 00:54:12;;;;;;;13.77;7.27;;;1.70;99.90;;;;;;5043767;22;20903;-83
2021/12/07 00:56:38;;;;;;;11.52;6.00;;;1.70;99.90;;;;;;5031578;28;20056;-83
2021/12/07 00:59:09;;;;;;;12.07;6.57;;;1.70;99.90;;;;;;5038870;28;20111;-83
2021/12/07 01:01:41;;;;;;;13.88;6.88;;;1.80;99.90;;;;;;5045862;28;20041;-82
2021/12/07 01:04:07;;;;;;;13.98;7.25;;;1.70;99.90;;;;;;5027190;28;20105;-83
2021/12/07 01:06:46;;;;;;;12.30;6.50;;;1.60;99.90;;;;;;5047202;28;20148;-82
2021/12/07 01:26:01;;;;;;;11.20;5.85;;;1.70;99.90;;;;;;5047847;28;20119;-82
2021/12/07 01:28:40;;;;;;;11.25;6.85;;;1.80;99.90;;;;;;5030503;28;20052;-82
2021/12/07 01:31:18;;;;;;;9.80;5.28;;;1.80;99.90;;;;;;5048036;28;20048;-83
2021/12/07 01:34:10;;;;;;;10.13;5.60;;;1.80;99.90;;;;;;5029245;28;20041;-82
2021/12/07 01:37:32;;;;;;;11.55;6.03;;;1.80;99.90;;;;;;5047425;28;20103;-82
2021/12/07 01:40:00;;;;;;;11.95;6.55;;;1.80;99.90;;;;;;5043915;28;20072;-83
2021/12/07 01:48:09;;;;;;;10.98;5.50;;;1.80;99.90;;;;;;5047755;28;20049;-82
2021/12/07 01:51:37;;;;;;;10.82;5.22;;;1.90;99.90;;;;;;5037376;28;20040;-84
2021/12/07 01:57:51;;;;;;;11.82;6.13;;;1.90;99.90;;;;;;5031869;28;20041;-83
2021/12/07 02:01:47;;;;;;;10.93;5.78;;;1.90;99.90;;;;;;5045825;28;20049;-82
2021/12/07 02:04:13;;;;;;;10.57;6.37;;;1.90;99.90;;;;;;5030410;28;20372;-82
2021/12/07 02:06:41;;;;;;;10.70;5.82;;;2.00;99.90;;;;;;5039608;28;20364;-82
2021/12/07 02:09:10;;;;;;;9.63;5.43;;;1.90;99.90;;;;;;5043778;28;20049;-83
2021/12/07 02:11:39;;;;;;;9.25;5.75;;;1.90;99.90;;;;;;5055677;28;20036;-84
2021/12/07 02:14:19;;;;;;;10.75;5.97;;;2.00;99.90;;;;;;5048715;28;20040;-83
2021/12/07 02:16:53;;;;;;;11.05;6.00;;;2.00;99.90;;;;;;5055832;28;20041;-82
2021/12/07 02:19:19;;;;;;;12.10;6.00;;;2.00;99.90;;;;;;5056545;28;20126;-82
2021/12/07 02:21:48;;;;;;;14.63;6.22;;;1.90;99.90;;;;;;5045889;28;20045;-83
2021/12/07 02:24:15;;;;;;;10.57;6.05;;;2.00;99.90;;;;;;5057700;28;20541;-83
2021/12/07 02:26:47;;;;;;;10.20;6.28;;;1.90;99.90;;;;;;5052831;28;20084;-82
2021/12/07 02:29:16;;;;;;;8.55;5.10;;;2.10;99.90;;;;;;5052118;28;20033;-83
2021/12/07 02:31:45;;;;;;;8.38;5.18;;;2.00;99.90;;;;;;5054119;28;20048;-83
2021/12/07 02:34:12;;;;;;;9.52;5.25;;;2.10;99.90;;;;;;5060639;28;20072;-82
2021/12/07 02:36:41;;;;;;;8.35;4.72;;;2.00;99.90;;;;;;5057725;28;20037;-82
2021/12/07 02:39:22;;;;;;;10.20;5.90;;;2.00;99.90;;;;;;5055399;28;20041;-83
2021/12/07 02:41:53;;;;;;;8.52;5.53;;;1.90;99.90;;;;;;5077571;28;20041;-84
2021/12/07 02:44:19;;;;;;;9.05;5.43;;;2.00;99.90;;;;;;5036490;28;20045;-82
2021/12/07 02:46:55;;;;;;;;;;;;;;;;;;;;;
2021/12/07 02:49:21;;;;;;;9.50;5.43;;;2.00;99.90;;;;;;5054865;28;20037;-84
2021/12/07 02:51:53;;;;;;;9.20;5.72;;;2.00;99.90;;;;;;5040691;28;20098;-82
2021/12/07 02:54:21;;;;;;;7.87;4.37;;;2.00;99.90;;;;;;5048131;28;20479;-82
2021/12/07 02:56:57;;;;;;;8.88;4.85;;;2.00;99.90;;;;;;5057047;28;20444;-86
2021/12/07 02:59:26;;;;;;;10.82;6.20;;;2.10;99.90;;;;;;5053108;28;20037;-85
2021/12/07 03:02:01;;;;;;;9.32;5.38;;;2.00;99.90;;;;;;5053181;28;20041;-82
2021/12/07 03:04:36;;;;;;;9.50;5.65;;;2.00;99.90;;;;;;5060414;28;20046;-82
2021/12/07 03:07:19;;;;;;;10.70;5.10;;;2.00;99.90;;;;;;5051875;28;20108;-83
2021/12/07 03:25:51;;;;;;;8.95;5.07;;;2.00;99.90;;;;;;5044962;28;20139;-84
2021/12/07 03:26:36;;;;;;;10.20;5.53;;;1.90;99.90;;;;;;5045697;28;20029;-82
2021/12/07 03:29:08;;;;;;;8.40;5.07;;;1.80;99.90;;;;;;5043240;28;20068;-82
2021/12/07 03:31:34;;;;;;;11.85;5.57;;;1.80;99.90;;;;;;5044491;28;20090;-83
2021/12/07 03:34:01;;;;;;;9.55;5.32;;;1.80;99.90;;;;;;5042141;28;20049;-83
2021/12/07 03:36:29;;;;;;;9.70;5.97;;;1.80;99.90;;;;;;5046316;28;20519;-83
2021/12/07 03:38:54;;;;;;;10.13;5.38;;;1.80;99.90;;;;;;5046583;28;20072;-83
2021/12/07 03:41:21;;;;;;;8.20;4.87;;;1.90;99.90;;;;;;5044951;28;20045;-83
2021/12/07 03:43:47;;;;;;;11.38;4.60;;;1.90;99.90;;;;;;5047037;28;20133;-83
2021/12/07 03:46:13;;;;;;;;;;;1.90;99.90;;;;;;5049187;28;20178;-83
2021/12/07 03:48:40;;;;;;;9.95;5.63;;;1.90;99.90;;;;;;5046300;28;19928;-83
2021/12/07 03:51:06;;;;;;;9.70;5.80;;;2.00;99.90;;;;;;5043439;28;20033;-82
2021/12/07 03:53:32;;;;;;;8.10;4.83;;;2.00;99.90;;;;;;5051494;28;20082;-81
2021/12/07 03:55:59;;;;;;;10.02;5.18;;;2.00;99.90;;;;;;5045820;28;20098;-81
2021/12/07 03:58:25;;;;;;;10.25;5.05;;;2.00;99.90;;;;;;5030263;28;20044;-83
2021/12/07 04:00:50;;;;;;;9.03;5.30;;;2.00;99.90;;;;;;5046791;28;20045;-83
2021/12/07 04:03:18;;;;;;;11.07;5.30;;;2.00;99.90;;;;;;5029522;28;20045;-84
2021/12/07 04:05:48;;;;;;;10.98;5.28;;;2.00;99.90;;;;;;5027931;28;20077;-83
2021/12/07 04:08:25;;;;;;;16.13;4.93;;;2.10;99.90;;;;;;5027781;28;20037;-84
2021/12/07 04:10:52;;;;;;;10.32;5.53;;;2.00;99.90;;;;;;5039019;28;20041;-84
2021/12/07 04:13:20;;;;;;;11.50;5.75;;;2.00;99.90;;;;;;5031324;28;20048;-83
2021/12/07 04:15:53;;;;;;;9.48;4.88;;;2.00;99.90;;;;;;5029580;28;20056;-81
2021/12/07 04:18:19;;;;;;;12.43;5.53;;;2.00;99.90;;;;;;5030036;28;20115;-82
2021/12/07 04:20:48;;;;;;;8.82;4.78;;;2.00;99.90;;;;;;5044900;28;20044;-82
2021/12/07 04:23:13;;;;;;;9.32;4.78;;;2.00;99.90;;;;;;5027785;28;20450;-83
2021/12/07 04:25:39;;;;;;;12.20;5.97;;;2.10;99.90;;;;;;5027625;28;20144;-82
2021/12/07 04:28:08;;;;;;;13.60;5.53;;;2.10;99.90;;;;;;5034056;28;20751;-83
2021/12/07 04:30:39;;;;;;;14.20;5.75;;;2.10;99.90;;;;;;5044467;28;20463;-83
2021/12/07 04:33:07;;;;;;;11.38;5.95;;;2.10;99.90;;;;;;5053483;28;20033;-81
2021/12/07 04:35:34;;;;;;;13.07;5.82;;;2.10;99.90;;;;;;5025431;28;20037;-82
2021/12/07 04:38:00;;;;;;;12.00;5.38;;;2.10;99.90;;;;;;5031235;28;20082;-82
2021/12/07 04:40:29;;;;;;;9.13;4.77;;;2.10;99.90;;;;;;5035268;28;20068;-82
2021/12/07 04:42:56;;;;;;;9.52;4.88;;;2.10;99.90;;;;;;5034692;28;20057;-82
2021/12/07 04:58:42;;;;;;;13.18;4.88;;;2.10;99.90;;;;;;5047000;28;20473;-83
2021/12/07 05:01:10;;;;;;;8.20;4.30;;;2.20;99.90;;;;;;5048535;28;20036;-82
2021/12/07 05:03:37;;;;;;;12.18;4.88;;;2.10;99.90;;;;;;5046707;28;20479;-83
2021/12/07 05:06:03;;;;;;;7.95;4.15;;;2.20;99.90;;;;;;5052259;28;20181;-82
2021/12/07 05:08:48;;;;;;;12.65;3.92;;;2.10;99.90;;;;;;5054577;28;20045;-82
2021/12/07 05:13:55;;;;;;;10.97;4.40;;;2.20;99.90;;;;;;5028429;28;20041;-82
2021/12/07 05:23:55;;;;;;;9.80;5.07;;;2.20;99.90;;;;;;5051067;28;20809;-82
2021/12/07 05:24:48;;;;;;;8.57;3.67;;;2.30;99.90;;;;;;5054779;28;20041;-85
2021/12/07 05:38:14;;;;;;;16.55;5.45;;;2.30;99.90;;;;;;5060555;28;20160;-82
2021/12/07 05:40:39;;;;;;;12.07;3.90;;;2.40;99.90;;;;;;5045195;28;20040;-82
2021/12/07 05:43:05;;;;;;;8.57;3.73;;;2.40;99.90;;;;;;5044406;28;20041;-82
2021/12/07 05:45:34;;;;;;;11.90;4.33;;;2.40;99.90;;;;;;5040694;28;20560;-82
2021/12/07 05:48:01;;;;;;;7.43;3.42;;;2.30;99.90;;;;;;5037876;28;20088;-82
2021/12/07 05:50:31;;;;;;;10.82;3.45;;;2.40;99.90;;;;;;5049138;28;20455;-82
2021/12/07 05:53:00;;;;;;;9.73;3.35;;;2.40;99.90;;;;;;5029325;28;20043;-84
2021/12/07 05:55:26;;;;;;;10.18;4.18;;;2.40;99.90;;;;;;5048645;28;20467;-82
2021/12/07 05:57:53;;;;;;;11.27;3.37;;;2.50;99.90;;;;;;5045251;28;20041;-82
2021/12/07 06:00:26;;;;;;;8.85;3.63;;;2.50;99.90;;;;;;5045127;28;20045;-82
2021/12/07 06:02:57;;;;;;;8.52;3.55;;;2.50;99.90;;;;;;5030371;28;20052;-82
2021/12/07 06:05:24;;;;;;;8.77;3.28;;;2.50;99.90;;;;;;5033814;28;20040;-82
2021/12/07 06:07:50;;;;;;;19.27;4.22;;;2.60;99.90;;;;;;5045220;28;20546;-82
2021/12/07 06:10:16;;;;;;;11.00;3.95;;;2.50;99.90;;;;;;5031440;28;20037;-82
2021/12/07 06:12:42;;;;;;;12.77;3.78;;;2.60;99.90;;;;;;5046023;28;20057;-83
2021/12/07 06:15:09;;;;;;;13.68;4.28;;;2.50;99.90;;;;;;5042755;28;20020;-82
2021/12/07 06:17:37;;;;;;;11.00;4.22;;;2.50;99.90;;;;;;5034271;28;20039;-83
2021/12/07 06:20:04;;;;;;;11.07;3.95;;;2.50;99.90;;;;;;5049271;28;20514;-82
2021/12/07 06:22:29;;;;;;;9.70;3.88;;;2.60;99.90;;;;;;5045401;28;20123;-82
2021/12/07 06:24:55;;;;;;;8.00;4.10;;;2.60;99.90;;;;;;5046156;28;20072;-82
2021/12/07 06:27:20;;;;;;;8.93;4.20;;;2.60;99.90;;;;;;5050911;28;20041;-81
2021/12/07 06:29:46;;;;;;;12.27;4.03;;;2.60;99.90;;;;;;5046180;28;20120;-83
2021/12/07 06:32:12;;;;;;;17.63;4.20;;;2.60;99.90;;;;;;5047437;28;20044;-82
2021/12/07 06:34:38;;;;;;;7.80;3.72;;;2.70;99.90;;;;;;5045210;28;20040;-82
2021/12/07 06:37:05;;;;;;;16.43;4.20;;;2.70;99.90;;;;;;5034920;28;20041;-82
2021/12/07 06:39:34;;;;;;;12.45;4.70;;;2.60;99.90;;;;;;5034350;28;20033;-81
2021/12/07 06:42:00;;;;;;;10.00;4.63;;;2.50;99.90;;;;;;5032874;28;20049;-83
2021/12/07 06:44:26;;;;;;;11.25;4.00;;;2.60;99.90;;;;;;5046274;28;20066;-82
2021/12/07 06:46:52;;;;;;;7.95;3.92;;;2.60;99.90;;;;;;5031682;28;20116;-84
2021/12/07 06:49:19;;;;;;;14.70;4.68;;;2.60;99.90;;;;;;5034366;28;20091;-84
2021/12/07 06:51:46;;;;;;;10.68;3.72;;;2.50;99.90;;;;;;5049587;28;20052;-83
2021/12/07 06:54:12;;;;;;;9.80;4.05;;;2.40;99.90;;;;;;5050958;22;20041;-87
2021/12/07 06:56:38;;;;;;;12.57;3.97;;;2.40;99.90;;;;;;5042978;28;20602;-87
2021/12/07 06:59:05;;;;;;;11.43;5.45;;;2.30;99.90;;;;;;5032101;28;20037;-86
2021/12/07 07:01:31;;;;;;;;;;;2.40;99.90;;;;;;5024854;28;20095;-86
2021/12/07 07:03:57;;;;;;;10.00;4.72;;;2.30;99.90;;;;;;5026140;28;19923;-83
2021/12/07 07:06:23;;;;;;;12.70;5.03;;;2.20;99.90;;;;;;5034482;28;20124;-86
2021/12/07 07:08:50;;;;;;;18.67;5.37;;;2.30;99.90;;;;;;5025169;28;20037;-86
2021/12/07 07:11:20;;;;;;;18.33;5.32;;;2.20;99.90;;;;;;5024733;28;20038;-86
2021/12/07 07:13:47;;;;;;;15.73;4.47;;;2.20;99.90;;;;;;5004379;28;20037;-87
2021/12/07 07:16:13;;;;;;;14.95;4.32;;;2.20;99.90;;;;;;5028220;28;20171;-84
2021/12/07 07:18:39;;;;;;;9.83;4.80;;;2.10;99.90;;;;;;5011650;28;20590;-84
2021/12/07 07:21:08;;;;;;;;;;;2.10;99.90;;;;;;5016225;28;20045;-86
2021/12/07 07:23:34;;;;;;;9.63;3.80;;;2.10;99.90;;;;;;5022936;28;19932;-86
2021/12/07 07:26:00;;;;;;;7.93;4.05;;;2.10;99.90;;;;;;5023166;28;20068;-86
2021/12/07 07:28:27;;;;;;;15.50;4.50;;;2.10;99.90;;;;;;5021938;28;20495;-86
2021/12/07 07:30:53;;;;;;;10.85;4.75;;;2.10;99.90;;;;;;5006721;28;20073;-86
2021/12/07 07:33:19;;;;;;;14.23;4.47;;;2.10;99.90;;;;;;5022652;28;20487;-86
2021/12/07 07:35:45;;;;;;;11.38;4.15;;;2.20;99.90;;;;;;5024648;28;20033;-86
2021/12/07 07:38:11;;;;;;;7.20;3.57;;;2.20;99.90;;;;;;5027189;28;20047;-86
2021/12/07 07:40:36;;;;;;;9.63;3.87;;;2.10;99.90;;;;;;5044916;28;20037;-87
2021/12/07 07:43:02;;;;;;;7.07;3.63;;;2.10;99.90;;;;;;5010609;28;20384;-85
2021/12/07 07:45:29;;;;;;;10.90;3.63;;;2.10;99.90;;;;;;5006844;28;20041;-87
2021/12/07 07:47:55;;;;;;;9.68;3.65;;;2.10;99.90;;;;;;5023678;28;20045;-87
2021/12/07 07:50:23;;;;;;;9.73;3.67;;;2.00;99.90;;;;;;5024378;28;20037;-86
2021/12/07 07:52:49;;;;;;;12.40;4.15;;;2.10;99.90;;;;;;5024840;28;20057;-85
2021/12/07 07:55:15;;;;;;;12.97;3.80;;;2.00;99.90;;;;;;5047105;28;20041;-84
2021/12/07 07:57:42;;;;;;;18.48;5.95;;;2.00;99.90;;;;;;5008629;28;20041;-84
2021/12/07 08:00:11;;;;;;;17.83;5.30;;;2.00;99.90;;;;;;5045677;28;20033;-86
2021/12/07 08:02:37;;;;;;;24.65;6.72;;;1.90;99.90;;;;;;5015202;28;20087;-86
2021/12/07 08:05:04;;;;;;;15.73;5.57;;;1.90;99.90;;;;;;5028151;28;20041;-85
2021/12/07 08:07:29;;;;;;;21.92;5.15;;;1.80;99.90;;;;;;5007920;28;20193;-85
2021/12/07 08:09:55;;;;;;;15.07;5.47;;;1.80;99.90;;;;;;5027902;28;20116;-85
2021/12/07 08:12:33;;;;;;;11.63;4.10;;;1.80;99.90;;;;;;5035675;28;20124;-87
2021/12/07 08:15:06;;;;;;;13.52;5.68;;;1.80;99.90;;;;;;5028068;28;20033;-87
2021/12/07 08:17:43;;;;;;;14.57;5.65;;;1.80;99.90;;;;;;5011916;28;20685;-87
2021/12/07 08:20:28;;;;;;;20.80;5.82;;;1.80;99.90;;;;;;5028957;28;20037;-87
2021/12/07 08:22:58;;;;;;;19.20;6.03;;;1.70;99.90;;;;;;5021323;28;20038;-87
2021/12/07 08:25:29;;;;;;;24.95;7.32;;;1.70;99.90;;;;;;5022029;28;20081;-86
2021/12/07 08:27:56;;;;;;;26.67;7.82;;;1.80;99.90;;;;;;5014789;28;20125;-86
2021/12/07 08:30:21;;;;;;;17.05;6.45;;;1.80;99.90;;;;;;5035834;28;20037;-86
2021/12/07 08:32:47;;;;;;;17.07;5.40;;;1.80;99.90;;;;;;5031897;28;20040;-85
2021/12/07 08:35:16;;;;;;;20.03;4.70;;;1.80;99.90;;;;;;5028814;28;20061;-86
2021/12/07 08:37:44;;;;;;;18.15;4.53;;;1.80;99.90;;;;;;5019659;28;20392;-85
2021/12/07 08:40:10;;;;;;;20.38;5.53;;;1.90;99.90;;;;;;5023779;28;20045;-85
2021/12/07 08:42:37;;;;;;;17.92;6.78;;;1.90;99.90;;;;;;5023701;28;20025;-87
2021/12/07 08:45:05;;;;;;;25.67;5.57;;;1.90;99.90;;;;;;5029683;28;20279;-87
2021/12/07 08:47:31;;;;;;;16.40;5.55;;;1.90;99.90;;;;;;5036180;28;20045;-85
2021/12/07 08:49:57;;;;;;;10.10;2.57;;;1.90;99.90;;;;;;5032323;28;20456;-85
2021/12/07 08:52:23;;;;;;;10.93;2.53;;;2.00;99.90;;;;;;5030866;28;20052;-87
2021/12/07 09:00:01;;;;;;;9.20;2.35;;;2.20;99.90;;;;;;5025189;28;20044;-85
2021/12/07 09:02:30;;;;;;;7.60;2.35;;;2.20;99.90;;;;;;5026712;28;20041;-85
2021/12/07 09:04:55;;;;;;;10.07;3.55;;;2.20;99.90;;;;;;5023262;28;20145;-85
2021/12/07 09:07:22;;;;;;;10.33;2.73;;;2.30;99.90;;;;;;5025852;28;20189;-83
2021/12/07 09:09:48;;;;;;;9.45;1.90;;;2.30;99.90;;;;;;5022076;28;20037;-85
2021/12/07 09:12:16;;;;;;;8.80;2.23;;;2.40;99.90;;;;;;5014825;28;20260;-86
2021/12/07 09:14:43;;;;;;;10.07;2.25;;;2.40;99.90;;;;;;5019028;28;20045;-84
2021/12/07 09:17:11;;;;;;;;;;;2.50;99.90;;;;;;5024834;28;20041;-86
2021/12/07 09:19:37;;;;;;;6.80;2.25;;;2.50;99.90;;;;;;5023350;28;19917;-85
2021/12/07 09:22:06;;;;;;;12.50;2.80;;;2.60;99.90;;;;;;5020544;28;20045;-86
2021/12/07 09:24:35;;;;;;;9.68;2.63;;;2.70;99.90;;;;;;5042087;28;20047;-86
2021/12/07 09:27:02;;;;;;;6.65;2.50;;;2.80;99.90;;;;;;5000960;28;22735;-85
2021/12/07 09:29:27;;;;;;;;;;;2.80;99.90;;;;;;5024449;28;20088;-85
2021/12/07 09:31:53;;;;;;;9.90;2.40;;;2.90;99.90;;;;;;5022042;28;19925;-86
2021/12/07 09:34:19;;;;;;;9.23;2.27;;;2.90;99.90;;;;;;5005084;28;20052;-85
2021/12/07 09:36:45;;;;;;;8.73;2.17;;;3.00;99.90;;;;;;5013066;28;20585;-85
2021/12/07 09:39:14;;;;;;;8.35;2.33;;;3.10;99.90;;;;;;4999299;28;20996;-85
2021/12/07 09:41:40;;;;;;;10.13;2.67;;;3.20;99.90;;;;;;5020598;28;20042;-85
2021/12/07 09:44:07;;;;;;;11.23;2.80;;;3.30;99.90;;;;;;5023634;28;20392;-86
2021/12/07 09:46:34;;;;;;;7.15;2.45;;;3.40;99.90;;;;;;5024304;28;20651;-84
2021/12/07 09:49:00;;;;;;;6.30;2.17;;;3.50;99.90;;;;;;5020608;28;20045;-85
2021/12/07 09:51:27;;;;;;;12.77;3.67;;;3.60;99.90;;;;;;5004242;28;20030;-82
2021/12/07 09:53:57;;;;;;;7.10;2.63;;;3.80;99.90;;;;;;5027347;28;20431;-81
2021/12/07 09:56:23;;;;;;;10.57;2.67;;;3.80;99.90;;;;;;5022159;28;20037;-80
2021/12/07 09:58:53;;;;;;;8.82;2.53;;;3.90;99.90;;;;;;5020502;28;20534;-81
2021/12/07 10:01:19;;;;;;;10.73;3.58;;;3.90;99.90;;;;;;5020483;28;20065;-82
2021/12/07 10:03:45;;;;;;;13.85;4.13;;;3.90;99.90;;;;;;5026475;28;20112;-82
2021/12/07 10:06:11;;;;;;;13.10;3.38;;;3.80;99.90;;;;;;5024279;28;20041;-81
2021/12/07 10:08:37;;;;;;;10.65;3.03;;;3.80;99.90;;;;;;5011405;28;20406;-80
2021/12/07 10:11:05;;;;;;;6.87;2.60;;;3.90;99.90;;;;;;5021067;28;20033;-81
2021/12/07 10:13:32;;;;;;;13.88;3.20;;;3.90;99.90;;;;;;5047477;28;20041;-81
2021/12/07 10:15:59;;;;;;;;;;;3.90;99.90;;;;;;5028328;28;20061;-81
2021/12/07 10:18:27;;;;;;;8.32;3.78;;;3.90;99.90;;;;;;5024920;28;19917;-82
2021/12/07 10:20:59;;;;;;;11.65;3.22;;;3.90;99.90;;;;;;5045858;28;20055;-82
2021/12/07 10:23:42;;;;;;;8.10;3.03;;;4.00;99.90;;;;;;5031423;28;20037;-80
2021/12/07 10:26:17;;;;;;;8.85;3.35;;;3.90;99.90;;;;;;5035220;28;20044;-81
2021/12/07 10:29:06;;;;;;;10.95;3.35;;;4.00;99.90;;;;;;5022172;28;20045;-81
2021/12/07 10:31:39;;;;;;;6.43;2.50;;;4.00;99.90;;;;;;5030397;28;20053;-82
2021/12/07 10:34:20;;;;;;;17.92;3.95;;;3.90;99.90;;;;;;5027252;28;20034;-92
2021/12/07 10:37:04;;;;;;;14.85;3.13;;;4.00;99.90;;;;;;5013157;28;20042;-87
2021/12/07 10:39:38;;;;;;;6.22;3.22;;;4.00;99.90;;;;;;5008211;28;20049;-88
2021/12/07 10:42:07;;;;;;;14.90;2.42;;;4.10;99.90;;;;;;5030685;28;20685;-86
2021/12/07 10:44:35;;;;;;;13.30;4.30;;;4.30;99.90;;;;;;5033118;28;20037;-86
2021/12/07 10:47:05;;;;;;;11.52;3.05;;;4.40;99.90;;;;;;5047606;28;20042;-85
2021/12/07 10:49:43;;;;;;;14.00;2.65;;;4.60;99.90;;;;;;5010560;28;20060;-86
2021/12/07 10:52:15;;;;;;;15.52;2.80;;;4.60;99.90;;;;;;5025249;28;20619;-86
2021/12/07 10:54:48;;;;;;;11.77;3.03;;;4.80;99.90;;;;;;5043437;28;20541;-87
2021/12/07 10:57:19;;;;;;;17.33;3.58;;;4.90;99.90;;;;;;5023987;28;20068;-87
2021/12/07 11:00:12;;;;;;;10.35;2.60;;;5.00;99.90;;;;;;5021724;28;20045;-86
2021/12/07 11:02:44;;;;;;;9.38;2.45;;;5.10;99.90;;;;;;5007987;28;20037;-86
2021/12/07 11:05:27;;;;;;;8.38;2.50;;;5.30;99.90;;;;;;5017908;23;20050;-73
2021/12/07 11:07:53;;;;;;;7.10;2.25;;;5.40;99.90;;;;;;5020444;28;20133;-74
2021/12/07 11:10:32;;;;;;;9.95;2.28;;;5.50;99.90;;;;;;4999550;28;20112;-74
2021/12/07 11:13:07;;;;;;;6.45;2.10;;;5.60;99.90;;;;;;5002180;28;20045;-73
2021/12/07 11:15:36;;;;;;;8.43;2.60;;;5.70;99.90;;;;;;4998785;28;20081;-73
2021/12/07 11:18:07;;;;;;;8.25;2.92;;;5.80;99.90;;;;;;4999474;28;20510;-73
2021/12/07 11:20:35;;;;;;;6.30;2.15;;;5.80;99.90;;;;;;4988304;28;20450;-73
2021/12/07 11:23:13;;;;;;;8.40;2.15;;;5.80;99.90;;;;;;5001169;28;20099;-73
2021/12/07 11:31:42;;;;;;;6.55;2.88;;;5.80;99.90;;;;;;5005589;28;20407;-73
2021/12/07 11:34:13;;;;;;;9.15;2.60;;;5.80;99.90;;;;;;4998844;28;20132;-73
2021/12/07 11:36:40;;;;;;;10.88;2.78;;;5.80;99.90;;;;;;5001399;28;20038;-73
2021/12/07 11:39:29;;;;;;;11.00;2.25;;;5.80;99.90;;;;;;5002200;28;20066;-74
2021/12/07 11:42:04;;;;;;;11.25;2.83;;;5.80;99.90;;;;;;5000145;28;20100;-73
2021/12/07 11:44:58;;;;;;;11.95;2.38;;;5.80;99.90;;;;;;5012664;28;20042;-71
2021/12/07 11:47:33;;;;;;;11.20;2.50;;;5.70;99.90;;;;;;5001731;28;20046;-71
2021/12/07 11:50:02;;;;;;;12.10;2.60;;;5.70;99.90;;;;;;5001911;28;20041;-71
2021/12/07 11:52:28;;;;;;;7.82;2.22;;;5.60;99.90;;;;;;5001040;28;20231;-72
2021/12/07 11:54:54;;;;;;;7.87;2.30;;;5.60;99.90;;;;;;5001695;28;20042;-72
2021/12/07 11:57:20;;;;;;;16.25;3.35;;;5.60;99.90;;;;;;4999056;28;20088;-72
2021/12/07 11:59:48;;;;;;;10.30;2.55;;;5.60;99.90;;;;;;4997322;28;20041;-72
2021/12/07 12:02:15;;;;;;;11.48;2.95;;;5.70;99.90;;;;;;4995623;28;20093;-72
2021/12/07 12:04:42;;;;;;;17.20;2.70;;;5.80;99.90;;;;;;4995386;28;20049;-72
2021/12/07 12:07:09;;;;;;;13.73;2.78;;;6.00;99.90;;;;;;5001149;28;20034;-72
2021/12/07 12:09:37;;;;;;;11.40;2.90;;;6.10;99.90;;;;;;5003156;28;20406;-72
2021/12/07 12:12:34;;;;;;;9.45;2.65;;;6.10;99.90;;;;;;5003782;28;20034;-72
2021/12/07 12:15:41;;;;;;;10.63;2.55;;;6.20;99.90;;;;;;5021244;28;20041;-72
2021/12/07 12:18:31;;;;;;;8.13;3.03;;;6.30;99.90;;;;;;4963580;28;20536;-72
2021/12/07 12:21:15;;;;;;;10.75;2.60;;;6.40;99.90;;;;;;4951170;28;20038;-72
2021/12/07 12:23:58;;;;;;;6.20;1.98;;;6.40;99.90;;;;;;4985359;28;20089;-72
2021/12/07 12:26:25;;;;;;;11.52;2.90;;;6.40;99.90;;;;;;5005148;28;20536;-72
2021/12/07 12:28:53;;;;;;;6.90;2.40;;;6.50;99.90;;;;;;5002790;28;20096;-73
2021/12/07 12:31:47;;;;;;;6.22;2.55;;;6.50;99.90;;;;;;5002930;28;20041;-72
2021/12/07 12:34:26;;;;;;;9.52;2.50;;;6.50;99.90;;;;;;5022537;28;20161;-72
2021/12/07 12:37:08;;;;;;;6.65;2.30;;;6.50;99.90;;;;;;5004598;28;20053;-72
2021/12/07 12:39:40;;;;;;;6.88;2.60;;;6.50;99.90;;;;;;4999592;28;20049;-72
2021/12/07 12:42:06;;;;;;;6.65;2.65;;;6.50;99.90;;;;;;5014382;28;20121;-72
2021/12/07 12:44:35;;;;;;;10.90;2.85;;;6.50;99.90;;;;;;4996675;28;20034;-72
2021/12/07 12:47:00;;;;;;;6.35;2.30;;;6.50;99.90;;;;;;5000775;28;20124;-72
2021/12/07 12:49:40;;;;;;;12.17;2.50;;;6.50;99.90;;;;;;5004152;28;20129;-73
2021/12/07 12:52:06;;;;;;;7.82;2.80;;;6.50;99.90;;;;;;4993621;28;20081;-72
2021/12/07 12:54:45;;;;;;;9.53;2.30;;;6.50;99.90;;;;;;4992576;28;20766;-72
2021/12/07 12:57:14;;;;;;;10.85;3.13;;;6.40;99.90;;;;;;4996174;28;20371;-72
2021/12/07 12:59:43;;;;;;;7.95;3.17;;;6.40;99.90;;;;;;4995702;28;20608;-72
2021/12/07 13:02:10;;;;;;;8.35;2.10;;;6.40;99.90;;;;;;4998846;28;20061;-72
2021/12/07 13:04:36;;;;;;;12.35;2.80;;;6.40;99.90;;;;;;4982310;28;20450;-72
2021/12/07 13:07:25;;;;;;;9.20;2.50;;;6.40;99.90;;;;;;5001720;28;20099;-72
2021/12/07 13:09:58;;;;;;;9.85;2.67;;;6.30;99.90;;;;;;5002470;28;20042;-72
2021/12/07 13:12:38;;;;;;;5.10;2.25;;;6.30;99.90;;;;;;4993890;28;20560;-73
2021/12/07 13:15:08;;;;;;;7.80;2.55;;;6.30;99.90;;;;;;4997008;28;20625;-72
2021/12/07 13:17:46;;;;;;;15.95;2.47;;;6.30;99.90;;;;;;4997980;28;20069;-72
2021/12/07 13:20:25;;;;;;;8.40;2.30;;;6.30;99.90;;;;;;4998579;28;20115;-72
2021/12/07 13:23:04;;;;;;;6.38;1.95;;;6.30;99.90;;;;;;4997152;28;20136;-72
2021/12/07 13:25:46;;;;;;;10.07;2.80;;;6.20;99.90;;;;;;4996739;28;20079;-72
2021/12/07 13:28:31;;;;;;;10.32;3.10;;;6.20;99.90;;;;;;4991497;28;20045;-73
2021/12/07 13:31:13;;;;;;;16.92;2.75;;;6.20;99.90;;;;;;4996290;28;20506;-72
2021/12/07 13:33:57;;;;;;;7.30;2.53;;;6.20;99.90;;;;;;4997918;28;20033;-72
2021/12/07 13:36:58;;;;;;;8.15;2.35;;;6.10;99.90;;;;;;4992683;28;20056;-72
2021/12/07 13:39:24;;;;;;;6.43;2.03;;;6.10;99.90;;;;;;4925639;28;20046;-72
2021/12/07 13:42:06;;;;;;;5.90;1.97;;;6.10;99.90;;;;;;4989109;23;20239;-69
2021/12/07 13:44:42;;;;;;;8.55;1.75;;;6.10;99.90;;;;;;5016039;28;20057;-68
2021/12/07 13:47:12;;;;;;;9.02;2.88;;;6.00;99.90;;;;;;5019540;28;20405;-69
2021/12/07 13:49:45;;;;;;;10.38;2.90;;;6.00;99.90;;;;;;5022678;28;20042;-69
2021/12/07 13:52:15;;;;;;;10.43;4.25;;;5.90;99.90;;;;;;5020938;28;20049;-69
2021/12/07 13:54:48;;;;;;;4.78;2.05;;;5.90;99.90;;;;;;5027157;28;20496;-71
2021/12/07 13:57:16;;;;;;;15.43;2.85;;;5.90;99.90;;;;;;5015684;28;20120;-71
2021/12/07 13:59:42;;;;;;;8.88;2.35;;;5.80;99.90;;;;;;5020556;28;20037;-71
2021/12/07 14:02:08;;;;;;;8.40;2.47;;;5.70;99.90;;;;;;5012668;28;20034;-71
2021/12/07 14:04:34;;;;;;;12.32;2.88;;;5.70;99.90;;;;;;5018850;28;20053;-71
2021/12/07 14:06:59;;;;;;;12.80;2.70;;;5.70;99.90;;;;;;5002511;28;20228;-70
2021/12/07 14:09:25;;;;;;;11.33;2.67;;;5.60;99.90;;;;;;5020877;28;20087;-70
2021/12/07 14:11:54;;;;;;;14.40;3.93;;;5.60;99.90;;;;;;5024667;28;20037;-70
2021/12/07 14:14:20;;;;;;;12.32;3.53;;;5.60;99.90;;;;;;5015593;28;20501;-70
2021/12/07 14:16:46;;;;;;;;;;;5.50;99.90;;;;;;5020396;28;20022;-70
2021/12/07 14:19:12;;;;;;;10.65;3.60;;;5.50;99.90;;;;;;5020822;28;19925;-70
2021/12/07 14:21:39;;;;;;;10.07;2.57;;;5.40;99.90;;;;;;5013817;28;20037;-70
2021/12/07 14:24:08;;;;;;;;;;;5.40;99.90;;;;;;5019721;28;20456;-70
2021/12/07 14:26:37;;;;;;;12.75;2.53;;;5.30;99.90;;;;;;5009910;28;20328;-70
2021/12/07 14:29:08;;;;;;;8.85;2.90;;;5.30;99.90;;;;;;5019474;28;20505;-70
2021/12/07 14:31:41;;;;;;;7.55;2.30;;;5.30;99.90;;;;;;5017381;28;20229;-70
2021/12/07 14:34:08;;;;;;;14.05;3.67;;;5.20;99.90;;;;;;5012760;28;20454;-70
2021/12/07 14:36:41;;;;;;;;;;;5.10;99.90;;;;;;5013076;28;20044;-70
2021/12/07 14:39:11;;;;;;;10.05;2.97;;;5.10;99.90;;;;;;5016126;28;19925;-70
2021/12/07 14:41:46;;;;;;;7.07;3.00;;;5.10;99.90;;;;;;5015548;28;20332;-70